createdAt,value
2022-12-22T00:00:01.643Z,941.61
2022-12-22T00:00:11.646Z,941.62
2022-12-22T00:00:21.641Z,941.61
2022-12-22T00:00:31.648Z,941.61
2022-12-22T00:00:41.644Z,941.63
2022-12-22T00:00:51.637Z,941.61
2022-12-22T00:01:01.643Z,941.62
2022-12-22T00:01:11.640Z,941.60
2022-12-22T00:01:21.641Z,941.60
2022-12-22T00:01:31.661Z,941.60
2022-12-22T00:01:48.029Z,941.60
2022-12-22T00:01:52.735Z,941.59
2022-12-22T00:02:01.824Z,941.57
2022-12-22T00:02:11.771Z,941.59
2022-12-22T00:02:21.887Z,941.57
2022-12-22T00:02:31.904Z,941.56
2022-12-22T00:02:41.783Z,941.58
2022-12-22T00:02:51.875Z,941.58
2022-12-22T00:03:01.741Z,941.58
2022-12-22T00:03:11.748Z,941.57
2022-12-22T00:03:21.875Z,941.58
2022-12-22T00:03:31.842Z,941.58
2022-12-22T00:03:41.772Z,941.58
2022-12-22T00:03:51.903Z,941.57
2022-12-22T00:04:01.817Z,941.57
2022-12-22T00:04:11.734Z,941.56
2022-12-22T00:04:21.751Z,941.56
2022-12-22T00:04:31.656Z,941.56
2022-12-22T00:04:41.663Z,941.56
2022-12-22T00:04:51.659Z,941.57
2022-12-22T00:05:01.659Z,941.57
2022-12-22T00:05:11.664Z,941.56
2022-12-22T00:05:21.661Z,941.57
2022-12-22T00:05:31.662Z,941.56
2022-12-22T00:05:41.662Z,941.55
2022-12-22T00:05:51.672Z,941.54
2022-12-22T00:06:01.678Z,941.55
2022-12-22T00:06:11.667Z,941.56
2022-12-22T00:06:21.669Z,941.55
2022-12-22T00:06:31.671Z,941.55
2022-12-22T00:06:41.673Z,941.57
2022-12-22T00:06:51.669Z,941.55
2022-12-22T00:07:01.673Z,941.54
2022-12-22T00:07:11.669Z,941.54
2022-12-22T00:07:21.671Z,941.54
2022-12-22T00:07:31.677Z,941.55
2022-12-22T00:07:41.676Z,941.55
2022-12-22T00:07:51.677Z,941.54
2022-12-22T00:08:01.685Z,941.53
2022-12-22T00:08:11.678Z,941.53
2022-12-22T00:08:21.677Z,941.53
2022-12-22T00:08:31.694Z,941.53
2022-12-22T00:08:41.682Z,941.52
2022-12-22T00:08:51.687Z,941.51
2022-12-22T00:09:05.419Z,941.53
2022-12-22T00:09:11.683Z,941.53
2022-12-22T00:09:21.683Z,941.55
2022-12-22T00:09:31.688Z,941.55
2022-12-22T00:09:41.693Z,941.54
2022-12-22T00:09:51.683Z,941.54
2022-12-22T00:10:01.725Z,941.55
2022-12-22T00:10:11.665Z,941.55
2022-12-22T00:10:21.692Z,941.55
2022-12-22T00:10:31.696Z,941.54
2022-12-22T00:10:41.692Z,941.54
2022-12-22T00:10:51.673Z,941.54
2022-12-22T00:11:01.687Z,941.54
2022-12-22T00:11:11.700Z,941.50
2022-12-22T00:11:21.689Z,941.53
2022-12-22T00:11:31.703Z,941.54
2022-12-22T00:11:41.690Z,941.52
2022-12-22T00:11:51.694Z,941.51
2022-12-22T00:12:01.699Z,941.51
2022-12-22T00:12:11.700Z,941.52
2022-12-22T00:12:21.695Z,941.50
2022-12-22T00:12:31.698Z,941.50
2022-12-22T00:12:41.697Z,941.50
2022-12-22T00:12:51.708Z,941.50
2022-12-22T00:13:01.699Z,941.50
2022-12-22T00:13:11.698Z,941.51
2022-12-22T00:13:21.704Z,941.51
2022-12-22T00:13:31.698Z,941.50
2022-12-22T00:13:41.710Z,941.50
2022-12-22T00:13:51.719Z,941.48
2022-12-22T00:14:01.710Z,941.48
2022-12-22T00:14:11.703Z,941.48
2022-12-22T00:14:21.705Z,941.48
2022-12-22T00:14:31.705Z,941.48
2022-12-22T00:14:41.706Z,941.48
2022-12-22T00:14:51.711Z,941.47
2022-12-22T00:15:01.727Z,941.47
2022-12-22T00:15:11.714Z,941.48
2022-12-22T00:15:21.709Z,941.48
2022-12-22T00:15:31.714Z,941.46
2022-12-22T00:15:41.713Z,941.47
2022-12-22T00:15:51.711Z,941.47
2022-12-22T00:16:01.711Z,941.46
2022-12-22T00:16:11.728Z,941.46
2022-12-22T00:16:21.803Z,941.45
2022-12-22T00:16:31.759Z,941.45
2022-12-22T00:16:41.799Z,941.45
2022-12-22T00:16:51.796Z,941.44
2022-12-22T00:17:01.778Z,941.46
2022-12-22T00:17:11.783Z,941.45
2022-12-22T00:17:21.741Z,941.44
2022-12-22T00:17:31.735Z,941.42
2022-12-22T00:17:41.725Z,941.44
2022-12-22T00:17:51.724Z,941.43
2022-12-22T00:18:01.733Z,941.43
2022-12-22T00:18:11.735Z,941.43
2022-12-22T00:18:21.729Z,941.42
2022-12-22T00:18:31.729Z,941.40
2022-12-22T00:18:41.745Z,941.39
2022-12-22T00:18:51.744Z,941.40
2022-12-22T00:19:01.737Z,941.41
2022-12-22T00:19:11.752Z,941.41
2022-12-22T00:19:21.738Z,941.40
2022-12-22T00:19:31.749Z,941.40
2022-12-22T00:19:41.752Z,941.42
2022-12-22T00:19:51.740Z,941.36
2022-12-22T00:20:01.776Z,941.38
2022-12-22T00:20:18.089Z,941.38
2022-12-22T00:20:22.746Z,941.36
2022-12-22T00:20:31.740Z,941.38
2022-12-22T00:20:41.742Z,941.38
2022-12-22T00:20:51.744Z,941.38
2022-12-22T00:21:01.743Z,941.39
2022-12-22T00:21:11.745Z,941.39
2022-12-22T00:21:21.743Z,941.38
2022-12-22T00:21:31.746Z,941.37
2022-12-22T00:21:41.746Z,941.38
2022-12-22T00:21:51.761Z,941.36
2022-12-22T00:22:01.750Z,941.36
2022-12-22T00:22:11.747Z,941.34
2022-12-22T00:22:21.764Z,941.36
2022-12-22T00:22:31.751Z,941.36
2022-12-22T00:22:41.755Z,941.36
2022-12-22T00:22:51.758Z,941.35
2022-12-22T00:23:01.756Z,941.36
2022-12-22T00:23:11.751Z,941.35
2022-12-22T00:23:21.752Z,941.33
2022-12-22T00:23:31.752Z,941.34
2022-12-22T00:23:42.457Z,941.33
2022-12-22T00:23:51.793Z,941.33
2022-12-22T00:24:01.766Z,941.33
2022-12-22T00:24:11.756Z,941.32
2022-12-22T00:24:21.765Z,941.33
2022-12-22T00:24:31.758Z,941.31
2022-12-22T00:24:41.764Z,941.32
2022-12-22T00:24:51.759Z,941.32
2022-12-22T00:25:01.760Z,941.31
2022-12-22T00:25:11.764Z,941.31
2022-12-22T00:25:21.764Z,941.31
2022-12-22T00:25:31.770Z,941.31
2022-12-22T00:25:41.771Z,941.31
2022-12-22T00:25:51.763Z,941.32
2022-12-22T00:26:01.767Z,941.32
2022-12-22T00:26:11.749Z,941.31
2022-12-22T00:26:21.767Z,941.30
2022-12-22T00:26:31.769Z,941.32
2022-12-22T00:26:41.774Z,941.31
2022-12-22T00:26:51.782Z,941.31
2022-12-22T00:27:01.771Z,941.30
2022-12-22T00:27:11.778Z,941.32
2022-12-22T00:27:21.777Z,941.33
2022-12-22T00:27:31.784Z,941.32
2022-12-22T00:27:45.497Z,941.30
2022-12-22T00:27:51.779Z,941.29
2022-12-22T00:28:01.783Z,941.29
2022-12-22T00:28:11.785Z,941.29
2022-12-22T00:28:21.780Z,941.29
2022-12-22T00:28:31.792Z,941.30
2022-12-22T00:28:41.781Z,941.30
2022-12-22T00:28:51.794Z,941.29
2022-12-22T00:29:01.787Z,941.29
2022-12-22T00:29:11.783Z,941.29
2022-12-22T00:29:21.777Z,941.28
2022-12-22T00:29:31.788Z,941.28
2022-12-22T00:29:41.789Z,941.28
2022-12-22T00:29:51.790Z,941.29
2022-12-22T00:30:01.794Z,941.29
2022-12-22T00:30:11.791Z,941.28
2022-12-22T00:30:21.791Z,941.28
2022-12-22T00:30:31.845Z,941.29
2022-12-22T00:30:41.860Z,941.30
2022-12-22T00:30:51.845Z,941.30
2022-12-22T00:31:01.860Z,941.29
2022-12-22T00:31:11.901Z,941.27
2022-12-22T00:31:21.841Z,941.28
2022-12-22T00:31:31.799Z,941.30
2022-12-22T00:31:41.796Z,941.30
2022-12-22T00:31:51.800Z,941.30
2022-12-22T00:32:01.801Z,941.30
2022-12-22T00:32:11.800Z,941.30
2022-12-22T00:32:21.800Z,941.29
2022-12-22T00:32:31.793Z,941.28
2022-12-22T00:32:41.804Z,941.29
2022-12-22T00:32:51.802Z,941.28
2022-12-22T00:33:01.807Z,941.28
2022-12-22T00:33:11.806Z,941.28
2022-12-22T00:33:21.813Z,941.29
2022-12-22T00:33:31.816Z,941.28
2022-12-22T00:33:41.812Z,941.28
2022-12-22T00:33:51.814Z,941.27
2022-12-22T00:34:01.824Z,941.27
2022-12-22T00:34:11.813Z,941.27
2022-12-22T00:34:21.793Z,941.27
2022-12-22T00:34:32.789Z,941.27
2022-12-22T00:34:41.821Z,941.26
2022-12-22T00:34:51.819Z,941.26
2022-12-22T00:35:01.816Z,941.26
2022-12-22T00:35:11.816Z,941.25
2022-12-22T00:35:21.817Z,941.24
2022-12-22T00:35:31.829Z,941.26
2022-12-22T00:35:41.823Z,941.26
2022-12-22T00:35:51.823Z,941.24
2022-12-22T00:36:01.821Z,941.24
2022-12-22T00:36:11.823Z,941.24
2022-12-22T00:36:21.823Z,941.25
2022-12-22T00:36:31.829Z,941.25
2022-12-22T00:36:41.836Z,941.23
2022-12-22T00:36:51.828Z,941.23
2022-12-22T00:37:01.830Z,941.23
2022-12-22T00:37:11.827Z,941.24
2022-12-22T00:37:21.830Z,941.22
2022-12-22T00:37:31.850Z,941.21
2022-12-22T00:37:41.833Z,941.21
2022-12-22T00:37:51.832Z,941.19
2022-12-22T00:38:01.837Z,941.19
2022-12-22T00:38:11.834Z,941.19
2022-12-22T00:38:21.840Z,941.19
2022-12-22T00:38:31.843Z,941.20
2022-12-22T00:38:41.838Z,941.17
2022-12-22T00:38:51.842Z,941.16
2022-12-22T00:39:01.841Z,941.16
2022-12-22T00:39:11.847Z,941.15
2022-12-22T00:39:21.847Z,941.16
2022-12-22T00:39:31.844Z,941.16
2022-12-22T00:39:41.857Z,941.17
2022-12-22T00:39:51.844Z,941.18
2022-12-22T00:40:01.853Z,941.17
2022-12-22T00:40:11.849Z,941.17
2022-12-22T00:40:21.846Z,941.17
2022-12-22T00:40:31.849Z,941.17
2022-12-22T00:40:41.850Z,941.18
2022-12-22T00:40:51.847Z,941.17
2022-12-22T00:41:01.834Z,941.17
2022-12-22T00:41:11.850Z,941.18
2022-12-22T00:41:21.852Z,941.16
2022-12-22T00:41:31.853Z,941.14
2022-12-22T00:41:41.858Z,941.14
2022-12-22T00:41:51.857Z,941.13
2022-12-22T00:42:01.853Z,941.12
2022-12-22T00:42:11.865Z,941.13
2022-12-22T00:42:21.864Z,941.12
2022-12-22T00:42:31.864Z,941.12
2022-12-22T00:42:41.865Z,941.13
2022-12-22T00:42:51.865Z,941.12
2022-12-22T00:43:01.876Z,941.11
2022-12-22T00:43:11.863Z,941.12
2022-12-22T00:43:21.902Z,941.14
2022-12-22T00:43:31.868Z,941.13
2022-12-22T00:43:41.875Z,941.14
2022-12-22T00:43:51.872Z,941.14
2022-12-22T00:44:01.866Z,941.15
2022-12-22T00:44:11.875Z,941.14
2022-12-22T00:44:21.875Z,941.13
2022-12-22T00:44:31.869Z,941.14
2022-12-22T00:44:41.874Z,941.14
2022-12-22T00:44:51.879Z,941.13
2022-12-22T00:45:01.871Z,941.13
2022-12-22T00:45:11.873Z,941.11
2022-12-22T00:45:21.871Z,941.10
2022-12-22T00:45:31.982Z,941.10
2022-12-22T00:45:41.919Z,941.11
2022-12-22T00:45:51.885Z,941.12
2022-12-22T00:46:01.933Z,941.12
2022-12-22T00:46:11.945Z,941.11
2022-12-22T00:46:21.949Z,941.10
2022-12-22T00:46:31.919Z,941.10
2022-12-22T00:46:41.876Z,941.09
2022-12-22T00:46:51.897Z,941.10
2022-12-22T00:47:01.906Z,941.10
2022-12-22T00:47:11.879Z,941.10
2022-12-22T00:47:21.886Z,941.09
2022-12-22T00:47:31.884Z,941.09
2022-12-22T00:47:41.884Z,941.09
2022-12-22T00:47:51.895Z,941.07
2022-12-22T00:48:01.888Z,941.07
2022-12-22T00:48:11.888Z,941.07
2022-12-22T00:48:21.886Z,941.07
2022-12-22T00:48:31.887Z,941.06
2022-12-22T00:48:41.903Z,941.05
2022-12-22T00:48:51.889Z,941.05
2022-12-22T00:49:01.893Z,941.06
2022-12-22T00:49:11.894Z,941.07
2022-12-22T00:49:21.893Z,941.07
2022-12-22T00:49:31.875Z,941.06
2022-12-22T00:49:41.896Z,941.05
2022-12-22T00:49:51.895Z,941.07
2022-12-22T00:50:01.930Z,941.06
2022-12-22T00:50:11.895Z,941.04
2022-12-22T00:50:21.911Z,941.03
2022-12-22T00:50:31.915Z,941.04
2022-12-22T00:50:41.906Z,941.05
2022-12-22T00:50:51.900Z,941.04
2022-12-22T00:51:01.899Z,941.05
2022-12-22T00:51:11.893Z,941.04
2022-12-22T00:51:21.903Z,941.02
2022-12-22T00:51:31.907Z,941.02
2022-12-22T00:51:41.923Z,941.03
2022-12-22T00:51:51.913Z,941.02
2022-12-22T00:52:01.906Z,941.03
2022-12-22T00:52:11.908Z,941.03
2022-12-22T00:52:21.914Z,941.04
2022-12-22T00:52:31.927Z,941.02
2022-12-22T00:52:41.931Z,941.01
2022-12-22T00:52:51.926Z,941.01
2022-12-22T00:53:01.915Z,941.00
2022-12-22T00:53:11.922Z,941.01
2022-12-22T00:53:21.919Z,941.00
2022-12-22T00:53:31.931Z,941.00
2022-12-22T00:53:41.920Z,941.01
2022-12-22T00:53:51.920Z,940.99
2022-12-22T00:54:01.943Z,941.01
2022-12-22T00:54:11.922Z,941.01
2022-12-22T00:54:21.927Z,941.00
2022-12-22T00:54:31.923Z,941.01
2022-12-22T00:54:42.017Z,940.99
2022-12-22T00:54:51.928Z,940.99
2022-12-22T00:55:01.934Z,940.99
2022-12-22T00:55:11.925Z,940.97
2022-12-22T00:55:21.929Z,940.96
2022-12-22T00:55:31.931Z,940.95
2022-12-22T00:55:41.938Z,940.97
2022-12-22T00:55:51.930Z,940.96
2022-12-22T00:56:01.935Z,940.96
2022-12-22T00:56:11.933Z,940.95
2022-12-22T00:56:21.931Z,940.94
2022-12-22T00:56:31.936Z,940.94
2022-12-22T00:56:41.959Z,940.93
2022-12-22T00:56:51.945Z,940.93
2022-12-22T00:57:01.945Z,940.92
2022-12-22T00:57:11.938Z,940.93
2022-12-22T00:57:21.941Z,940.93
2022-12-22T00:57:31.943Z,940.94
2022-12-22T00:57:41.946Z,940.95
2022-12-22T00:57:51.949Z,940.94
2022-12-22T00:58:01.979Z,940.93
2022-12-22T00:58:11.946Z,940.92
2022-12-22T00:58:21.957Z,940.91
2022-12-22T00:58:31.949Z,940.92
2022-12-22T00:58:41.949Z,940.93
2022-12-22T00:58:51.932Z,940.93
2022-12-22T00:59:01.961Z,940.93
2022-12-22T00:59:11.960Z,940.93
2022-12-22T00:59:21.954Z,940.95
2022-12-22T00:59:31.953Z,940.93
2022-12-22T00:59:41.957Z,940.94
2022-12-22T00:59:51.940Z,940.93
2022-12-22T01:00:01.992Z,940.91
2022-12-22T01:00:11.963Z,940.91
2022-12-22T01:00:21.959Z,940.90
2022-12-22T01:00:31.961Z,940.90
2022-12-22T01:00:41.963Z,940.92
2022-12-22T01:00:51.962Z,940.91
2022-12-22T01:01:01.983Z,940.90
2022-12-22T01:01:12.033Z,940.90
2022-12-22T01:01:21.994Z,940.88
2022-12-22T01:01:32.119Z,940.87
2022-12-22T01:01:42.070Z,940.88
2022-12-22T01:01:52.054Z,940.89
2022-12-22T01:02:02.072Z,940.87
2022-12-22T01:02:12.145Z,940.88
2022-12-22T01:02:22.161Z,940.88
2022-12-22T01:02:32.155Z,940.90
2022-12-22T01:02:42.091Z,940.90
2022-12-22T01:02:52.096Z,940.88
2022-12-22T01:03:02.181Z,940.88
2022-12-22T01:03:12.089Z,940.88
2022-12-22T01:03:22.048Z,940.87
2022-12-22T01:03:32.074Z,940.87
2022-12-22T01:03:42.066Z,940.87
2022-12-22T01:03:52.060Z,940.87
2022-12-22T01:04:01.987Z,940.86
2022-12-22T01:04:11.985Z,940.86
2022-12-22T01:04:22.000Z,940.85
2022-12-22T01:04:31.990Z,940.85
2022-12-22T01:04:41.979Z,940.85
2022-12-22T01:04:51.988Z,940.85
2022-12-22T01:05:01.990Z,940.85
2022-12-22T01:05:12.003Z,940.86
2022-12-22T01:05:22.002Z,940.87
2022-12-22T01:05:31.996Z,940.85
2022-12-22T01:05:41.991Z,940.85
2022-12-22T01:05:51.974Z,940.85
2022-12-22T01:06:01.997Z,940.84
2022-12-22T01:06:11.998Z,940.85
2022-12-22T01:06:21.994Z,940.83
2022-12-22T01:06:32.006Z,940.83
2022-12-22T01:06:41.997Z,940.82
2022-12-22T01:06:52.003Z,940.83
2022-12-22T01:07:02.004Z,940.82
2022-12-22T01:07:12.004Z,940.83
2022-12-22T01:07:22.006Z,940.80
2022-12-22T01:07:32.004Z,940.80
2022-12-22T01:07:42.005Z,940.82
2022-12-22T01:07:52.023Z,940.79
2022-12-22T01:08:02.012Z,940.80
2022-12-22T01:08:12.010Z,940.78
2022-12-22T01:08:22.010Z,940.79
2022-12-22T01:08:32.012Z,940.79
2022-12-22T01:08:42.022Z,940.81
2022-12-22T01:08:52.016Z,940.81
2022-12-22T01:09:02.012Z,940.83
2022-12-22T01:09:12.012Z,940.84
2022-12-22T01:09:22.017Z,940.83
2022-12-22T01:09:32.015Z,940.84
2022-12-22T01:09:42.012Z,940.80
2022-12-22T01:09:52.021Z,940.80
2022-12-22T01:10:02.019Z,940.81
2022-12-22T01:10:12.023Z,940.82
2022-12-22T01:10:22.023Z,940.81
2022-12-22T01:10:32.022Z,940.78
2022-12-22T01:10:42.023Z,940.78
2022-12-22T01:10:52.035Z,940.80
2022-12-22T01:11:02.030Z,940.82
2022-12-22T01:11:12.029Z,940.82
2022-12-22T01:11:22.075Z,940.82
2022-12-22T01:11:32.034Z,940.81
2022-12-22T01:11:42.041Z,940.79
2022-12-22T01:11:52.026Z,940.79
2022-12-22T01:12:02.029Z,940.79
2022-12-22T01:12:12.031Z,940.79
2022-12-22T01:12:22.032Z,940.79
2022-12-22T01:12:32.043Z,940.80
2022-12-22T01:12:42.021Z,940.80
2022-12-22T01:12:52.037Z,940.79
2022-12-22T01:13:02.037Z,940.80
2022-12-22T01:13:12.023Z,940.80
2022-12-22T01:13:22.042Z,940.79
2022-12-22T01:13:32.042Z,940.80
2022-12-22T01:13:42.042Z,940.81
2022-12-22T01:13:52.047Z,940.81
2022-12-22T01:14:02.044Z,940.80
2022-12-22T01:14:12.048Z,940.80
2022-12-22T01:14:22.047Z,940.79
2022-12-22T01:14:32.051Z,940.80
2022-12-22T01:14:42.049Z,940.77
2022-12-22T01:14:52.050Z,940.74
2022-12-22T01:15:02.050Z,940.75
2022-12-22T01:15:12.057Z,940.78
2022-12-22T01:15:22.063Z,940.77
2022-12-22T01:15:32.121Z,940.77
2022-12-22T01:15:42.101Z,940.79
2022-12-22T01:15:52.171Z,940.79
2022-12-22T01:16:02.081Z,940.77
2022-12-22T01:16:12.096Z,940.75
2022-12-22T01:16:22.113Z,940.76
2022-12-22T01:16:32.142Z,940.78
2022-12-22T01:16:42.060Z,940.79
2022-12-22T01:16:52.062Z,940.78
2022-12-22T01:17:02.080Z,940.76
2022-12-22T01:17:12.063Z,940.77
2022-12-22T01:17:22.063Z,940.77
2022-12-22T01:17:32.067Z,940.78
2022-12-22T01:17:42.069Z,940.79
2022-12-22T01:17:52.067Z,940.80
2022-12-22T01:18:02.069Z,940.82
2022-12-22T01:18:12.070Z,940.82
2022-12-22T01:18:22.078Z,940.82
2022-12-22T01:18:32.078Z,940.84
2022-12-22T01:18:42.086Z,940.83
2022-12-22T01:18:52.079Z,940.81
2022-12-22T01:19:02.089Z,940.77
2022-12-22T01:19:12.081Z,940.79
2022-12-22T01:19:22.088Z,940.78
2022-12-22T01:19:32.080Z,940.79
2022-12-22T01:19:42.080Z,940.80
2022-12-22T01:19:52.081Z,940.81
2022-12-22T01:20:02.103Z,940.78
2022-12-22T01:20:12.083Z,940.80
2022-12-22T01:20:22.070Z,940.79
2022-12-22T01:20:32.086Z,940.83
2022-12-22T01:20:42.084Z,940.80
2022-12-22T01:20:52.081Z,940.79
2022-12-22T01:21:02.090Z,940.79
2022-12-22T01:21:12.093Z,940.80
2022-12-22T01:21:22.102Z,940.81
2022-12-22T01:21:32.097Z,940.80
2022-12-22T01:21:42.102Z,940.81
2022-12-22T01:21:52.113Z,940.78
2022-12-22T01:22:02.104Z,940.79
2022-12-22T01:22:12.101Z,940.78
2022-12-22T01:22:22.091Z,940.77
2022-12-22T01:22:32.096Z,940.76
2022-12-22T01:22:42.107Z,940.76
2022-12-22T01:22:52.130Z,940.76
2022-12-22T01:23:02.100Z,940.76
2022-12-22T01:23:12.105Z,940.76
2022-12-22T01:23:22.096Z,940.76
2022-12-22T01:23:32.126Z,940.75
2022-12-22T01:23:42.104Z,940.75
2022-12-22T01:23:52.087Z,940.76
2022-12-22T01:24:02.140Z,940.76
2022-12-22T01:24:12.115Z,940.76
2022-12-22T01:24:22.104Z,940.74
2022-12-22T01:24:32.109Z,940.73
2022-12-22T01:24:42.114Z,940.73
2022-12-22T01:24:52.122Z,940.73
2022-12-22T01:25:02.109Z,940.74
2022-12-22T01:25:12.128Z,940.72
2022-12-22T01:25:22.113Z,940.71
2022-12-22T01:25:32.112Z,940.71
2022-12-22T01:25:42.113Z,940.73
2022-12-22T01:25:52.112Z,940.71
2022-12-22T01:26:02.116Z,940.70
2022-12-22T01:26:12.115Z,940.71
2022-12-22T01:26:22.115Z,940.67
2022-12-22T01:26:32.143Z,940.68
2022-12-22T01:26:42.123Z,940.69
2022-12-22T01:26:52.118Z,940.69
2022-12-22T01:27:02.121Z,940.67
2022-12-22T01:27:12.122Z,940.68
2022-12-22T01:27:22.121Z,940.68
2022-12-22T01:27:32.122Z,940.68
2022-12-22T01:27:42.126Z,940.68
2022-12-22T01:27:52.122Z,940.69
2022-12-22T01:28:02.127Z,940.70
2022-12-22T01:28:12.144Z,940.70
2022-12-22T01:28:22.158Z,940.68
2022-12-22T01:28:32.127Z,940.67
2022-12-22T01:28:42.129Z,940.68
2022-12-22T01:28:52.129Z,940.69
2022-12-22T01:29:02.135Z,940.70
2022-12-22T01:29:12.137Z,940.69
2022-12-22T01:29:22.133Z,940.69
2022-12-22T01:29:32.137Z,940.69
2022-12-22T01:29:42.148Z,940.69
2022-12-22T01:29:52.134Z,940.65
2022-12-22T01:30:02.135Z,940.67
2022-12-22T01:30:12.138Z,940.67
2022-12-22T01:30:22.140Z,940.66
2022-12-22T01:30:32.190Z,940.65
2022-12-22T01:30:42.163Z,940.65
2022-12-22T01:30:52.222Z,940.65
2022-12-22T01:31:02.244Z,940.66
2022-12-22T01:31:12.197Z,940.66
2022-12-22T01:31:22.176Z,940.67
2022-12-22T01:31:32.147Z,940.66
2022-12-22T01:31:42.145Z,940.68
2022-12-22T01:31:52.151Z,940.69
2022-12-22T01:32:02.150Z,940.67
2022-12-22T01:32:12.152Z,940.68
2022-12-22T01:32:22.160Z,940.66
2022-12-22T01:32:32.152Z,940.67
2022-12-22T01:32:42.153Z,940.65
2022-12-22T01:32:52.160Z,940.63
2022-12-22T01:33:02.155Z,940.64
2022-12-22T01:33:12.156Z,940.64
2022-12-22T01:33:22.159Z,940.65
2022-12-22T01:33:32.183Z,940.63
2022-12-22T01:33:42.165Z,940.62
2022-12-22T01:33:52.173Z,940.62
2022-12-22T01:34:02.163Z,940.62
2022-12-22T01:34:12.163Z,940.62
2022-12-22T01:34:22.162Z,940.61
2022-12-22T01:34:32.164Z,940.62
2022-12-22T01:34:42.168Z,940.63
2022-12-22T01:34:52.187Z,940.61
2022-12-22T01:35:02.170Z,940.61
2022-12-22T01:35:12.175Z,940.62
2022-12-22T01:35:22.156Z,940.62
2022-12-22T01:35:32.172Z,940.61
2022-12-22T01:35:42.182Z,940.60
2022-12-22T01:35:52.184Z,940.60
2022-12-22T01:36:02.179Z,940.61
2022-12-22T01:36:12.179Z,940.60
2022-12-22T01:36:22.163Z,940.60
2022-12-22T01:36:32.184Z,940.59
2022-12-22T01:36:42.194Z,940.61
2022-12-22T01:36:52.185Z,940.63
2022-12-22T01:37:02.169Z,940.61
2022-12-22T01:37:12.189Z,940.59
2022-12-22T01:37:22.187Z,940.60
2022-12-22T01:37:32.199Z,940.60
2022-12-22T01:37:42.202Z,940.60
2022-12-22T01:37:52.191Z,940.60
2022-12-22T01:38:02.191Z,940.59
2022-12-22T01:38:12.195Z,940.59
2022-12-22T01:38:22.195Z,940.60
2022-12-22T01:38:32.201Z,940.59
2022-12-22T01:38:42.195Z,940.60
2022-12-22T01:38:52.199Z,940.58
2022-12-22T01:39:02.199Z,940.58
2022-12-22T01:39:12.201Z,940.59
2022-12-22T01:39:22.208Z,940.58
2022-12-22T01:39:32.204Z,940.58
2022-12-22T01:39:42.205Z,940.59
2022-12-22T01:39:52.190Z,940.59
2022-12-22T01:40:02.224Z,940.60
2022-12-22T01:40:12.214Z,940.61
2022-12-22T01:40:22.212Z,940.59
2022-12-22T01:40:32.209Z,940.58
2022-12-22T01:40:42.223Z,940.58
2022-12-22T01:40:52.207Z,940.58
2022-12-22T01:41:02.196Z,940.59
2022-12-22T01:41:12.214Z,940.56
2022-12-22T01:41:22.226Z,940.55
2022-12-22T01:41:32.213Z,940.54
2022-12-22T01:41:42.215Z,940.54
2022-12-22T01:41:52.215Z,940.55
2022-12-22T01:42:02.217Z,940.56
2022-12-22T01:42:12.219Z,940.55
2022-12-22T01:42:22.218Z,940.54
2022-12-22T01:42:32.217Z,940.54
2022-12-22T01:42:42.236Z,940.54
2022-12-22T01:42:52.222Z,940.54
2022-12-22T01:43:02.222Z,940.54
2022-12-22T01:43:12.221Z,940.56
2022-12-22T01:43:22.223Z,940.55
2022-12-22T01:43:32.243Z,940.54
2022-12-22T01:43:42.240Z,940.53
2022-12-22T01:43:52.230Z,940.52
2022-12-22T01:44:02.238Z,940.52
2022-12-22T01:44:12.228Z,940.53
2022-12-22T01:44:22.230Z,940.53
2022-12-22T01:44:32.232Z,940.53
2022-12-22T01:44:42.231Z,940.52
2022-12-22T01:44:52.232Z,940.51
2022-12-22T01:45:02.230Z,940.51
2022-12-22T01:45:12.231Z,940.50
2022-12-22T01:45:22.234Z,940.50
2022-12-22T01:45:32.238Z,940.51
2022-12-22T01:45:42.233Z,940.52
2022-12-22T01:45:52.317Z,940.51
2022-12-22T01:46:02.288Z,940.50
2022-12-22T01:46:12.281Z,940.50
2022-12-22T01:46:22.254Z,940.51
2022-12-22T01:46:32.278Z,940.51
2022-12-22T01:46:42.335Z,940.49
2022-12-22T01:46:52.354Z,940.49
2022-12-22T01:47:02.999Z,940.50
2022-12-22T01:47:12.251Z,940.50
2022-12-22T01:47:22.247Z,940.50
2022-12-22T01:47:32.248Z,940.51
2022-12-22T01:47:42.252Z,940.50
2022-12-22T01:47:52.257Z,940.50
2022-12-22T01:48:02.249Z,940.50
2022-12-22T01:48:12.247Z,940.50
2022-12-22T01:48:22.261Z,940.47
2022-12-22T01:48:32.251Z,940.46
2022-12-22T01:48:42.252Z,940.47
2022-12-22T01:48:52.253Z,940.48
2022-12-22T01:49:02.267Z,940.48
2022-12-22T01:49:12.256Z,940.47
2022-12-22T01:49:22.254Z,940.46
2022-12-22T01:49:32.257Z,940.46
2022-12-22T01:49:42.260Z,940.46
2022-12-22T01:49:52.266Z,940.45
2022-12-22T01:50:02.259Z,940.45
2022-12-22T01:50:12.259Z,940.43
2022-12-22T01:50:22.259Z,940.42
2022-12-22T01:50:32.262Z,940.42
2022-12-22T01:50:42.259Z,940.41
2022-12-22T01:50:52.263Z,940.40
2022-12-22T01:51:02.262Z,940.40
2022-12-22T01:51:12.265Z,940.39
2022-12-22T01:51:22.267Z,940.38
2022-12-22T01:51:32.264Z,940.39
2022-12-22T01:51:42.268Z,940.39
2022-12-22T01:51:52.267Z,940.40
2022-12-22T01:52:02.270Z,940.40
2022-12-22T01:52:12.278Z,940.40
2022-12-22T01:52:22.271Z,940.40
2022-12-22T01:52:32.287Z,940.40
2022-12-22T01:52:42.349Z,940.40
2022-12-22T01:52:52.269Z,940.41
2022-12-22T01:53:02.280Z,940.41
2022-12-22T01:53:18.014Z,940.41
2022-12-22T01:53:23.282Z,940.42
2022-12-22T01:53:32.274Z,940.42
2022-12-22T01:53:42.280Z,940.41
2022-12-22T01:53:52.278Z,940.41
2022-12-22T01:54:02.320Z,940.42
2022-12-22T01:54:12.279Z,940.42
2022-12-22T01:54:22.283Z,940.42
2022-12-22T01:54:32.287Z,940.42
2022-12-22T01:54:42.283Z,940.42
2022-12-22T01:54:52.289Z,940.42
2022-12-22T01:55:02.285Z,940.39
2022-12-22T01:55:12.282Z,940.39
2022-12-22T01:55:22.288Z,940.41
2022-12-22T01:55:32.283Z,940.41
2022-12-22T01:55:42.284Z,940.39
2022-12-22T01:55:52.287Z,940.39
2022-12-22T01:56:02.288Z,940.39
2022-12-22T01:56:12.291Z,940.39
2022-12-22T01:56:22.296Z,940.39
2022-12-22T01:56:32.289Z,940.38
2022-12-22T01:56:42.296Z,940.39
2022-12-22T01:56:52.277Z,940.39
2022-12-22T01:57:02.306Z,940.41
2022-12-22T01:57:12.296Z,940.41
2022-12-22T01:57:22.312Z,940.42
2022-12-22T01:57:32.297Z,940.43
2022-12-22T01:57:42.296Z,940.43
2022-12-22T01:57:52.297Z,940.43
2022-12-22T01:58:02.297Z,940.42
2022-12-22T01:58:12.299Z,940.42
2022-12-22T01:58:22.309Z,940.41
2022-12-22T01:58:32.299Z,940.42
2022-12-22T01:58:42.335Z,940.43
2022-12-22T01:58:52.313Z,940.43
2022-12-22T01:59:02.414Z,940.44
2022-12-22T01:59:12.347Z,940.42
2022-12-22T01:59:22.342Z,940.42
2022-12-22T01:59:32.366Z,940.41
2022-12-22T01:59:42.344Z,940.42
2022-12-22T01:59:52.416Z,940.41
2022-12-22T02:00:02.447Z,940.41
2022-12-22T02:00:12.312Z,940.41
2022-12-22T02:00:22.312Z,940.40
2022-12-22T02:00:32.315Z,940.40
2022-12-22T02:00:42.311Z,940.41
2022-12-22T02:00:52.319Z,940.43
2022-12-22T02:01:02.317Z,940.40
2022-12-22T02:01:12.347Z,940.39
2022-12-22T02:01:22.403Z,940.38
2022-12-22T02:01:32.471Z,940.39
2022-12-22T02:01:42.461Z,940.39
2022-12-22T02:01:52.486Z,940.39
2022-12-22T02:02:02.527Z,940.40
2022-12-22T02:02:12.399Z,940.40
2022-12-22T02:02:22.404Z,940.41
2022-12-22T02:02:32.446Z,940.41
2022-12-22T02:02:42.459Z,940.40
2022-12-22T02:02:52.405Z,940.40
2022-12-22T02:03:02.502Z,940.40
2022-12-22T02:03:12.351Z,940.40
2022-12-22T02:03:22.363Z,940.41
2022-12-22T02:03:32.374Z,940.42
2022-12-22T02:03:42.467Z,940.42
2022-12-22T02:03:52.394Z,940.42
2022-12-22T02:04:02.333Z,940.42
2022-12-22T02:04:12.338Z,940.41
2022-12-22T02:04:22.340Z,940.40
2022-12-22T02:04:32.344Z,940.40
2022-12-22T02:04:42.340Z,940.40